Rosaria Lauro — IXXO — position and weather

sailwx.info

Track history (hours):
 
Tides and Currents Weather Stations Pressure Air Temp Water Temp Dewpoint Dewpoint Depression Visibility Wind Speed Wind Dir Waves Ship Positions

Rosaria Lauro

Last reported at 2014-Aug-20 11:33 UTC. Time now 2014-Aug-21 02:24 UTC.
Position N 40°46' E 014°00'.

Length 40 m; draft 1.5 m.

Type: Passenger vessel. MMSI: 247055900.

Date/timePositionNaut miles runAvg speedWind from/ knotsBaromVisibWave heightAir tempDewpointWater temp
2014-Aug-20 11:33N 40°46' E 014°00'7 6.2
2014-Aug-20 10:27N 40°45' E 013°52'0 0.0
2014-Aug-19 16:30N 40°45' E 013°52'1919.7
2014-Aug-19 15:33N 40°50' E 014°15'15 6.8
2014-Aug-19 13:25N 40°45' E 013°57'1515.2
2014-Aug-19 12:28N 40°50' E 014°15'0 0.1
2014-Aug-19 08:33N 40°50' E 014°16'18 1.1
2014-Aug-18 16:31N 40°46' E 013°53'1816.8
2014-Aug-18 15:29N 40°50' E 014°15'18 3.6
2014-Aug-18 10:26N 40°46' E 013°52'3 0.1
2014-Aug-16 10:21N 40°45' E 013°56'16 0.3
2014-Aug-14 12:09N 40°50' E 014°16'1322.2
2014-Aug-14 11:34N 40°44' E 014°01'7 5.7
2014-Aug-14 10:19N 40°45' E 013°51'1114.7
2014-Aug-14 09:34N 40°46' E 014°06'8 0.5
2014-Aug-13 15:27N 40°50' E 014°15'0 0.1
2014-Aug-13 12:07N 40°50' E 014°16'1421.0
2014-Aug-13 11:28N 40°46' E 013°59'6 5.3
2014-Aug-13 10:25N 40°44' E 013°52'1213.5
2014-Aug-13 09:32N 40°47' E 014°07'8 7.8
2014-Aug-13 08:34N 40°50' E 014°16'3 1.3
2014-Aug-13 06:33N 40°48' E 014°14'12 0.9
2014-Aug-12 16:24N 40°46' E 013°58'1414.7
2014-Aug-12 15:27N 40°50' E 014°15'15 7.3
2014-Aug-12 13:26N 40°45' E 013°57'1516.5
2014-Aug-12 12:33N 40°50' E 014°15'1211.7
2014-Aug-12 11:34N 40°46' E 014°01'7 7.2
2014-Aug-12 10:32N 40°44' E 013°52'1312.4
2014-Aug-12 09:31N 40°47' E 014°08'7 7.5
2014-Aug-12 08:33N 40°50' E 014°17'20 1.2
2014-Aug-11 16:33N 40°45' E 013°52'1918.7
2014-Aug-11 15:33N 40°50' E 014°15'1918.8
2014-Aug-11 14:33N 40°45' E 013°52'4 3.6
2014-Aug-11 13:33N 40°45' E 013°56'1515.5
2014-Aug-11 12:33N 40°50' E 014°15'1312.6
2014-Aug-11 11:34N 40°46' E 013°60'6 6.1
2014-Aug-11 10:31N 40°44' E 013°52'1111.9
2014-Aug-11 09:34N 40°46' E 014°06'8 8.2
2014-Aug-11 08:34N 40°50' E 014°16'1918.2
2014-Aug-11 07:31N 40°46' E 013°52'5 2.1
2014-Aug-11 05:18N 40°45' E 013°58'5 0.5
2014-Aug-10 19:03N 40°44' E 013°52'1121.5
2014-Aug-10 18:34N 40°45' E 014°05'4 3.9
2014-Aug-10 17:33N 40°46' E 014°10'10 8.9
2014-Aug-10 16:25N 40°45' E 013°57'1517.0
2014-Aug-10 15:33N 40°50' E 014°15'15 7.7
2014-Aug-10 13:33N 40°45' E 013°56'1515.4
2014-Aug-10 12:33N 40°50' E 014°15'1313.5
2014-Aug-10 11:34N 40°44' E 013°59'  
Track history (hours):
 
Tides and Currents Weather Stations Pressure Air Temp Water Temp Dewpoint Dewpoint Depression Visibility Wind Speed Wind Dir Waves Ship Positions

Rosaria Lauro

Last reported at 2014-Aug-20 11:33 UTC. Time now 2014-Aug-21 02:24 UTC.
Position N 40°46' E 014°00'.

Length 40 m; draft 1.5 m.

Type: Passenger vessel. MMSI: 247055900.

Date/timePositionNaut miles runAvg speedWind from/ knotsBaromVisibWave heightAir tempDewpointWater temp
2014-Aug-20 11:33N 40°46' E 014°00'7 6.2
2014-Aug-20 10:27N 40°45' E 013°52'0 0.0
2014-Aug-19 16:30N 40°45' E 013°52'1919.7
2014-Aug-19 15:33N 40°50' E 014°15'15 6.8
2014-Aug-19 13:25N 40°45' E 013°57'1515.2
2014-Aug-19 12:28N 40°50' E 014°15'0 0.1
2014-Aug-19 08:33N 40°50' E 014°16'18 1.1
2014-Aug-18 16:31N 40°46' E 013°53'1816.8
2014-Aug-18 15:29N 40°50' E 014°15'18 3.6
2014-Aug-18 10:26N 40°46' E 013°52'3 0.1
2014-Aug-16 10:21N 40°45' E 013°56'16 0.3
2014-Aug-14 12:09N 40°50' E 014°16'1322.2
2014-Aug-14 11:34N 40°44' E 014°01'7 5.7
2014-Aug-14 10:19N 40°45' E 013°51'1114.7
2014-Aug-14 09:34N 40°46' E 014°06'8 0.5
2014-Aug-13 15:27N 40°50' E 014°15'0 0.1
2014-Aug-13 12:07N 40°50' E 014°16'1421.0
2014-Aug-13 11:28N 40°46' E 013°59'6 5.3
2014-Aug-13 10:25N 40°44' E 013°52'1213.5
2014-Aug-13 09:32N 40°47' E 014°07'8 7.8
2014-Aug-13 08:34N 40°50' E 014°16'3 1.3
2014-Aug-13 06:33N 40°48' E 014°14'12 0.9
2014-Aug-12 16:24N 40°46' E 013°58'1414.7
2014-Aug-12 15:27N 40°50' E 014°15'15 7.3
2014-Aug-12 13:26N 40°45' E 013°57'1516.5
2014-Aug-12 12:33N 40°50' E 014°15'1211.7
2014-Aug-12 11:34N 40°46' E 014°01'7 7.2
2014-Aug-12 10:32N 40°44' E 013°52'1312.4
2014-Aug-12 09:31N 40°47' E 014°08'7 7.5
2014-Aug-12 08:33N 40°50' E 014°17'20 1.2
2014-Aug-11 16:33N 40°45' E 013°52'1918.7
2014-Aug-11 15:33N 40°50' E 014°15'1918.8
2014-Aug-11 14:33N 40°45' E 013°52'4 3.6
2014-Aug-11 13:33N 40°45' E 013°56'1515.5
2014-Aug-11 12:33N 40°50' E 014°15'1312.6
2014-Aug-11 11:34N 40°46' E 013°60'6 6.1
2014-Aug-11 10:31N 40°44' E 013°52'1111.9
2014-Aug-11 09:34N 40°46' E 014°06'8 8.2
2014-Aug-11 08:34N 40°50' E 014°16'1918.2
2014-Aug-11 07:31N 40°46' E 013°52'5 2.1
2014-Aug-11 05:18N 40°45' E 013°58'5 0.5
2014-Aug-10 19:03N 40°44' E 013°52'1121.5
2014-Aug-10 18:34N 40°45' E 014°05'4 3.9
2014-Aug-10 17:33N 40°46' E 014°10'10 8.9
2014-Aug-10 16:25N 40°45' E 013°57'1517.0
2014-Aug-10 15:33N 40°50' E 014°15'15 7.7
2014-Aug-10 13:33N 40°45' E 013°56'1515.4
2014-Aug-10 12:33N 40°50' E 014°15'1313.5
2014-Aug-10 11:34N 40°44' E 013°59'  

Dump ship's entire track history